Time;durP1;ratioP1;P1;durP2;ratioP2;P2;SDS_P1;SDS_P2;PMS_P1;PMS_P2;Temp;Humidity;BMP_temperature;BMP_pressure;BME280_temperature;BME280_humidity;BME280_pressure;Samples;Min_cycle;Max_cycle;Signal;HPM_P1;HPM_P2
2022/03/08 00:00:48;;;;;;;1.77;0.80;;;25.60;40.80;;;;;;5054414;28;20446;-92
2022/03/08 00:03:15;;;;;;;1.10;1.00;;;25.60;40.80;;;;;;5054214;28;20457;-91
2022/03/08 00:05:42;;;;;;;1.00;0.90;;;25.60;40.80;;;;;;5054471;28;20445;-85
2022/03/08 00:08:09;;;;;;;1.97;1.10;;;25.60;40.80;;;;;;5054551;28;20446;-92
2022/03/08 00:10:37;;;;;;;1.20;1.10;;;25.50;40.80;;;;;;5054417;28;20442;-85
2022/03/08 00:13:04;;;;;;;1.00;0.90;;;25.60;40.80;;;;;;5054468;28;20445;-85
2022/03/08 00:15:30;;;;;;;1.10;0.97;;;25.50;40.70;;;;;;5054859;28;20446;-91
2022/03/08 00:17:57;;;;;;;1.17;0.90;;;25.50;40.70;;;;;;5054306;28;20445;-90
2022/03/08 00:20:25;;;;;;;1.30;1.10;;;25.50;40.70;;;;;;5054153;28;20442;-86
2022/03/08 00:22:52;;;;;;;1.20;0.80;;;25.50;40.70;;;;;;5054272;28;20446;-92
2022/03/08 00:25:19;;;;;;;1.17;1.00;;;25.50;40.70;;;;;;5054697;28;20441;-92
2022/03/08 00:27:47;;;;;;;1.20;1.10;;;25.50;41.30;;;;;;5053780;28;20477;-85
2022/03/08 00:30:15;;;;;;;1.20;1.00;;;25.50;40.70;;;;;;5053807;28;20453;-85
2022/03/08 00:32:42;;;;;;;1.50;0.90;;;25.50;40.70;;;;;;5053871;28;20572;-92
2022/03/08 00:35:09;;;;;;;1.10;0.93;;;25.50;40.70;;;;;;5054071;28;20458;-87
2022/03/08 00:37:36;;;;;;;1.20;1.03;;;25.50;40.70;;;;;;5053898;28;20450;-85
2022/03/08 00:40:04;;;;;;;1.20;1.10;;;25.50;40.70;;;;;;5053731;28;21008;-91
2022/03/08 00:42:31;;;;;;;1.20;1.00;;;25.50;40.70;;;;;;5053928;28;20442;-88
2022/03/08 00:45:00;;;;;;;1.53;1.37;;;25.50;40.70;;;;;;5053678;28;20437;-91
2022/03/08 00:47:27;;;;;;;1.33;1.20;;;25.50;40.70;;;;;;5053778;28;20449;-91
2022/03/08 00:49:54;;;;;;;1.40;1.10;;;25.50;40.70;;;;;;5052936;28;20445;-85
2022/03/08 00:52:21;;;;;;;1.20;1.00;;;25.50;40.70;;;;;;5053434;28;20487;-92
2022/03/08 00:54:48;;;;;;;1.10;1.00;;;25.50;40.70;;;;;;5053417;28;20955;-91
2022/03/08 00:57:15;;;;;;;1.40;1.10;;;25.50;40.70;;;;;;5053471;28;20446;-90
2022/03/08 00:59:41;;;;;;;1.20;0.90;;;25.50;40.70;;;;;;5053638;28;20438;-92
2022/03/08 01:02:10;;;;;;;1.20;1.00;;;25.50;40.70;;;;;;5053545;28;20462;-92
2022/03/08 01:04:36;;;;;;;1.20;1.00;;;25.40;40.60;;;;;;5053653;28;20444;-86
2022/03/08 01:07:05;;;;;;;3.00;1.20;;;25.40;40.60;;;;;;5053561;28;20793;-85
2022/03/08 01:09:32;;;;;;;1.07;0.90;;;25.40;40.60;;;;;;5053274;28;20434;-89
2022/03/08 01:11:59;;;;;;;1.33;1.23;;;25.40;40.60;;;;;;5053353;28;20476;-91
2022/03/08 01:14:26;;;;;;;1.30;1.20;;;25.40;40.60;;;;;;5053293;28;20430;-91
2022/03/08 01:16:53;;;;;;;1.00;0.90;;;25.40;40.60;;;;;;5053544;28;20441;-85
2022/03/08 01:19:21;;;;;;;1.10;1.00;;;25.40;40.60;;;;;;5053650;28;20433;-92
2022/03/08 01:21:48;;;;;;;1.10;1.00;;;25.40;40.60;;;;;;5053457;28;20768;-92
2022/03/08 01:24:14;;;;;;;1.10;0.97;;;25.40;40.60;;;;;;5053426;28;20437;-88
2022/03/08 01:26:42;;;;;;;1.30;1.20;;;25.40;40.60;;;;;;5053098;28;20472;-92
2022/03/08 01:29:09;;;;;;;1.40;1.10;;;25.40;40.60;;;;;;5053262;28;20442;-85
2022/03/08 01:31:36;;;;;;;1.30;1.20;;;25.40;40.60;;;;;;5052993;28;20473;-85
2022/03/08 01:34:03;;;;;;;1.23;1.13;;;25.40;40.60;;;;;;5053234;28;20465;-86
2022/03/08 01:36:31;;;;;;;1.10;0.90;;;25.40;40.60;;;;;;5053231;28;20446;-92
2022/03/08 01:38:57;;;;;;;1.80;1.10;;;25.40;40.60;;;;;;5053138;28;20793;-86
2022/03/08 01:41:24;;;;;;;1.33;1.23;;;25.40;40.60;;;;;;5053141;28;20924;-88
2022/03/08 01:43:51;;;;;;;1.40;1.13;;;25.40;40.60;;;;;;5052970;28;20440;-92
2022/03/08 01:46:18;;;;;;;1.20;1.00;;;25.30;40.50;;;;;;5053229;28;20460;-91
2022/03/08 01:48:45;;;;;;;1.20;1.07;;;25.30;40.50;;;;;;5053000;28;20442;-86
2022/03/08 01:51:13;;;;;;;1.10;1.00;;;25.30;40.50;;;;;;5053112;28;20472;-90
2022/03/08 01:53:42;;;;;;;1.30;1.20;;;25.30;40.60;;;;;;5053108;28;20979;-91
2022/03/08 01:56:10;;;;;;;1.33;1.23;;;25.30;40.60;;;;;;5053131;28;20433;-86
2022/03/08 01:58:37;;;;;;;1.73;1.37;;;25.30;40.60;;;;;;5053183;28;20434;-91
2022/03/08 02:01:05;;;;;;;1.60;1.50;;;25.30;40.60;;;;;;5053949;28;20440;-86
2022/03/08 02:03:32;;;;;;;1.20;1.10;;;25.30;40.60;;;;;;5056369;28;20457;-88
2022/03/08 02:05:59;;;;;;;1.20;1.00;;;25.30;40.50;;;;;;5056849;28;20446;-91
2022/03/08 02:08:26;;;;;;;1.67;1.33;;;25.30;40.50;;;;;;5056637;28;20434;-85
2022/03/08 02:10:55;;;;;;;1.07;0.83;;;25.30;40.60;;;;;;5056456;28;20446;-85
2022/03/08 02:13:22;;;;;;;1.40;1.23;;;25.20;40.50;;;;;;5056479;28;20483;-92
2022/03/08 02:15:50;;;;;;;1.40;1.30;;;25.20;40.50;;;;;;5056526;28;20441;-85
2022/03/08 02:18:18;;;;;;;1.10;0.93;;;25.20;40.50;;;;;;5056347;28;20442;-92
2022/03/08 02:20:44;;;;;;;1.50;1.40;;;25.20;40.50;;;;;;5056556;28;20444;-85
2022/03/08 02:23:13;;;;;;;1.30;1.20;;;25.20;40.50;;;;;;5056262;28;20448;-85
2022/03/08 02:25:40;;;;;;;1.37;1.07;;;25.20;40.50;;;;;;5056326;28;20449;-85
2022/03/08 02:28:07;;;;;;;1.27;1.17;;;25.20;40.50;;;;;;5055950;28;20477;-89
2022/03/08 02:30:34;;;;;;;1.40;1.20;;;25.20;40.50;;;;;;5056329;28;20444;-91
2022/03/08 02:33:01;;;;;;;1.43;1.30;;;25.20;40.50;;;;;;5055916;28;20999;-92
2022/03/08 02:35:29;;;;;;;1.63;1.53;;;25.30;40.60;;;;;;5056007;28;20924;-92
2022/03/08 02:37:58;;;;;;;1.33;1.23;;;25.20;40.50;;;;;;5056161;28;20434;-86
2022/03/08 02:40:28;;;;;;;1.50;1.40;;;25.20;40.50;;;;;;5055943;28;20442;-91
2022/03/08 02:42:55;;;;;;;1.50;1.10;;;25.20;40.50;;;;;;5054258;28;20438;-90
2022/03/08 02:45:23;;;;;;;1.43;1.30;;;25.10;40.40;;;;;;5056763;28;20429;-91
2022/03/08 02:47:50;;;;;;;1.53;1.23;;;25.10;40.40;;;;;;5038322;28;20521;-90
2022/03/08 02:50:18;;;;;;;1.13;1.03;;;25.10;40.40;;;;;;5036708;28;20435;-91
2022/03/08 02:52:51;;;;;;;1.70;1.30;;;25.10;40.50;;;;;;5050077;28;20550;-89
2022/03/08 02:55:18;;;;;;;1.20;1.03;;;25.10;40.50;;;;;;5056367;28;20449;-91
2022/03/08 02:57:47;;;;;;;1.27;1.17;;;25.10;40.50;;;;;;5050256;28;20443;-91
2022/03/08 03:00:16;;;;;;;2.17;1.07;;;25.10;40.40;;;;;;5038820;28;20459;-89
2022/03/08 03:02:43;;;;;;;1.50;1.30;;;25.10;40.50;;;;;;5050108;28;20508;-88
2022/03/08 03:05:11;;;;;;;1.20;1.10;;;25.10;40.50;;;;;;5044536;28;20528;-86
2022/03/08 03:07:38;;;;;;;1.30;1.20;;;25.10;40.50;;;;;;5044422;28;20435;-87
2022/03/08 03:10:06;;;;;;;1.33;1.20;;;25.00;40.40;;;;;;5046939;28;20439;-92
2022/03/08 03:12:34;;;;;;;1.20;1.10;;;25.00;40.40;;;;;;5037007;28;20569;-91
2022/03/08 03:15:03;;;;;;;1.20;1.10;;;25.00;40.40;;;;;;5056490;28;20441;-91
2022/03/08 03:17:31;;;;;;;1.60;1.50;;;25.00;40.40;;;;;;5056366;28;20438;-92
2022/03/08 03:19:57;;;;;;;1.33;1.23;;;25.00;40.40;;;;;;5039462;28;20504;-91
2022/03/08 03:22:24;;;;;;;1.40;1.20;;;25.00;40.50;;;;;;5041820;28;20869;-92
2022/03/08 03:24:52;;;;;;;1.40;1.30;;;25.00;40.40;;;;;;5036383;28;20818;-92
2022/03/08 03:27:19;;;;;;;1.20;1.00;;;25.00;40.40;;;;;;5035974;28;20615;-91
2022/03/08 03:29:45;;;;;;;1.43;1.27;;;25.00;40.40;;;;;;5036351;28;20453;-91
2022/03/08 03:32:14;;;;;;;1.40;1.20;;;25.00;40.40;;;;;;5036166;28;20486;-91
2022/03/08 03:34:41;;;;;;;1.40;1.30;;;25.00;40.40;;;;;;5036182;28;20470;-91
2022/03/08 03:37:08;;;;;;;1.57;1.20;;;25.00;40.40;;;;;;5035792;28;20446;-89
2022/03/08 03:39:35;;;;;;;1.50;1.40;;;25.00;41.00;;;;;;5036021;28;20956;-89
2022/03/08 03:42:05;;;;;;;1.50;1.30;;;25.00;40.40;;;;;;5039071;28;20442;-85
2022/03/08 03:44:32;;;;;;;2.03;1.30;;;25.00;40.40;;;;;;5047423;28;20866;-85
2022/03/08 03:46:59;;;;;;;1.57;1.30;;;25.00;40.40;;;;;;5046096;28;20442;-84
2022/03/08 03:49:28;;;;;;;1.53;1.43;;;25.00;41.00;;;;;;5042913;28;20843;-84
2022/03/08 03:51:55;;;;;;;1.33;1.20;;;25.00;40.40;;;;;;5047015;28;20499;-85
2022/03/08 03:54:22;;;;;;;1.67;1.57;;;25.00;40.40;;;;;;5042556;28;20438;-84
2022/03/08 03:56:49;;;;;;;1.40;1.30;;;25.00;40.40;;;;;;5044946;28;20922;-84
2022/03/08 03:59:17;;;;;;;1.47;1.37;;;25.00;40.40;;;;;;5041437;28;20507;-84
2022/03/08 04:01:45;;;;;;;1.50;1.40;;;24.90;40.30;;;;;;5044952;28;20477;-85
2022/03/08 04:04:12;;;;;;;1.40;1.30;;;24.90;40.30;;;;;;5037290;28;20446;-85
2022/03/08 04:06:41;;;;;;;1.30;1.20;;;25.00;40.30;;;;;;5041996;28;20438;-84
2022/03/08 04:09:08;;;;;;;1.43;1.33;;;25.00;40.30;;;;;;5044330;28;20431;-84
2022/03/08 04:11:35;;;;;;;1.73;1.60;;;25.00;40.30;;;;;;5042483;28;20909;-85
2022/03/08 04:14:04;;;;;;;1.40;1.30;;;25.00;40.30;;;;;;5045049;28;20525;-85
2022/03/08 04:16:31;;;;;;;1.67;1.47;;;25.00;40.20;;;;;;5047011;28;20437;-85
2022/03/08 04:18:58;;;;;;;1.60;1.13;;;25.00;40.30;;;;;;5048715;28;20430;-90
2022/03/08 04:21:26;;;;;;;1.40;1.30;;;25.00;40.20;;;;;;5049873;28;20767;-90
2022/03/08 04:23:54;;;;;;;1.30;1.20;;;25.00;40.20;;;;;;5051049;28;20465;-91
2022/03/08 04:26:21;;;;;;;1.50;1.40;;;25.00;40.20;;;;;;5050635;28;20892;-84
2022/03/08 04:28:48;;;;;;;1.50;1.40;;;25.00;40.20;;;;;;5045048;28;20434;-84
2022/03/08 04:31:15;;;;;;;1.20;1.10;;;25.00;40.20;;;;;;5047759;28;20437;-85
2022/03/08 04:33:42;;;;;;;1.37;1.23;;;25.00;40.20;;;;;;5041601;28;20486;-84
2022/03/08 04:36:09;;;;;;;1.30;1.17;;;25.00;40.20;;;;;;5047660;28;20841;-84
2022/03/08 04:38:36;;;;;;;1.50;1.40;;;25.00;40.10;;;;;;5039350;28;20496;-85
2022/03/08 04:41:06;;;;;;;3.83;1.57;;;25.00;40.00;;;;;;5044925;28;20491;-85
2022/03/08 04:43:34;;;;;;;1.50;1.40;;;25.00;40.00;;;;;;5044451;28;20925;-84
2022/03/08 04:46:01;;;;;;;1.30;1.20;;;25.10;39.90;;;;;;5049428;28;20438;-85
2022/03/08 04:48:28;;;;;;;1.47;1.17;;;25.10;39.80;;;;;;5042170;28;20936;-90
2022/03/08 04:50:55;;;;;;;1.20;1.00;;;25.10;39.80;;;;;;5054634;28;20456;-91
2022/03/08 04:53:22;;;;;;;1.53;1.43;;;25.10;39.80;;;;;;5054338;28;20487;-91
2022/03/08 04:55:49;;;;;;;1.60;1.50;;;25.30;39.80;;;;;;5051973;28;20545;-88
2022/03/08 04:58:17;;;;;;;1.40;1.17;;;25.20;39.70;;;;;;5050068;28;20469;-94
2022/03/08 05:00:44;;;;;;;1.70;1.60;;;25.20;39.80;;;;;;5053837;28;20445;-90
2022/03/08 05:03:11;;;;;;;2.00;1.47;;;25.20;38.40;;;;;;5042533;28;20802;-91
2022/03/08 05:05:38;;;;;;;1.77;1.47;;;25.40;39.30;;;;;;5050235;28;20441;-89
2022/03/08 05:08:05;;;;;;;1.77;1.60;;;25.20;39.30;;;;;;5035857;28;20438;-84
2022/03/08 05:10:33;;;;;;;1.23;1.13;;;25.30;39.40;;;;;;5033459;28;20443;-90
2022/03/08 05:13:00;;;;;;;1.53;1.43;;;25.30;39.40;;;;;;5033455;28;20486;-84
2022/03/08 05:15:28;;;;;;;1.77;1.63;;;25.30;39.50;;;;;;5033611;28;20443;-84
2022/03/08 05:17:55;;;;;;;1.50;1.40;;;25.30;39.60;;;;;;5033289;28;20443;-92
2022/03/08 05:20:22;;;;;;;4.17;1.60;;;25.30;39.60;;;;;;5033449;28;20453;-84
2022/03/08 05:22:49;;;;;;;2.10;1.50;;;25.30;39.30;;;;;;5033318;28;20452;-90
2022/03/08 05:25:16;;;;;;;2.70;1.50;;;25.40;39.70;;;;;;5034041;28;20445;-89
2022/03/08 05:27:43;;;;;;;1.70;1.60;;;25.30;39.80;;;;;;5033039;28;20470;-85
2022/03/08 05:30:12;;;;;;;1.87;1.60;;;25.40;39.90;;;;;;5033573;28;20455;-90
2022/03/08 05:32:40;;;;;;;2.90;1.60;;;25.40;39.90;;;;;;5033106;28;20492;-86
2022/03/08 05:35:08;;;;;;;1.67;1.43;;;25.40;40.00;;;;;;5033247;28;20521;-84
2022/03/08 05:37:36;;;;;;;1.53;1.43;;;25.40;40.00;;;;;;5037052;28;20800;-84
2022/03/08 05:40:04;;;;;;;2.00;1.67;;;25.40;39.90;;;;;;5037298;28;20930;-91
2022/03/08 05:42:31;;;;;;;1.90;1.47;;;25.50;40.00;;;;;;5037036;28;20790;-84
2022/03/08 05:44:59;;;;;;;1.83;1.60;;;25.50;39.90;;;;;;5037750;28;20450;-88
2022/03/08 05:47:26;;;;;;;1.60;1.50;;;25.50;39.90;;;;;;5037508;28;20443;-85
2022/03/08 05:49:54;;;;;;;2.60;1.30;;;25.50;39.90;;;;;;5037330;28;20434;-84
2022/03/08 05:52:21;;;;;;;2.00;1.50;;;25.50;39.90;;;;;;5037235;28;20446;-90
2022/03/08 05:54:48;;;;;;;1.50;1.23;;;25.50;39.90;;;;;;5037026;28;20778;-88
2022/03/08 05:57:15;;;;;;;1.20;1.10;;;25.50;39.80;;;;;;5036314;28;20965;-84
2022/03/08 05:59:44;;;;;;;1.80;1.30;;;25.60;39.90;;;;;;5037155;28;20442;-91
2022/03/08 06:02:10;;;;;;;1.60;1.50;;;25.50;39.80;;;;;;5036711;28;20459;-85
2022/03/08 06:04:37;;;;;;;2.27;1.20;;;25.50;40.00;;;;;;5036941;28;20446;-89
2022/03/08 06:07:05;;;;;;;1.30;1.20;;;25.50;40.00;;;;;;5036956;28;20443;-89
2022/03/08 06:09:32;;;;;;;1.87;1.63;;;25.50;40.00;;;;;;5036710;28;20435;-90
2022/03/08 06:12:00;;;;;;;1.97;1.50;;;25.50;40.00;;;;;;5036982;28;20490;-89
2022/03/08 06:14:27;;;;;;;1.30;1.20;;;25.50;40.20;;;;;;5036643;28;20837;-91
2022/03/08 06:16:54;;;;;;;1.37;1.27;;;25.50;40.30;;;;;;5036248;28;20450;-86
2022/03/08 06:19:22;;;;;;;1.57;1.47;;;25.40;40.40;;;;;;5037143;28;20442;-86
2022/03/08 06:21:49;;;;;;;1.60;1.50;;;25.40;40.60;;;;;;5036708;28;20789;-87
2022/03/08 06:24:17;;;;;;;5.13;2.90;;;25.40;40.00;;;;;;5036503;28;20447;-86
2022/03/08 06:26:44;;;;;;;1.30;1.20;;;25.40;40.80;;;;;;5036149;28;20470;-86
2022/03/08 06:29:16;;;;;;;1.50;1.30;;;25.40;40.80;;;;;;5036297;28;20442;-90
2022/03/08 06:31:43;;;;;;;1.50;1.40;;;25.40;40.70;;;;;;5036233;28;20474;-92
2022/03/08 06:34:10;;;;;;;1.30;1.20;;;25.40;40.80;;;;;;5035692;28;20489;-87
2022/03/08 06:36:37;;;;;;;1.50;1.40;;;25.40;40.80;;;;;;5035495;28;20979;-85
2022/03/08 06:39:04;;;;;;;1.23;1.13;;;25.40;40.80;;;;;;5035373;28;20454;-85
2022/03/08 06:41:32;;;;;;;1.40;1.23;;;25.40;40.70;;;;;;5036099;28;20482;-91
2022/03/08 06:44:01;;;;;;;1.70;1.60;;;25.40;40.70;;;;;;5035893;28;20573;-85
2022/03/08 06:46:28;;;;;;;1.70;1.30;;;25.40;40.60;;;;;;5035923;28;20929;-86
2022/03/08 06:48:54;;;;;;;1.30;1.20;;;25.40;40.60;;;;;;5034788;28;20438;-91
2022/03/08 06:51:21;;;;;;;2.57;1.40;;;25.50;40.80;;;;;;5035232;28;21021;-91
2022/03/08 06:53:48;;;;;;;4.53;2.00;;;25.50;40.50;;;;;;5035874;28;20490;-92
2022/03/08 06:56:16;;;;;;;1.37;1.27;;;25.60;39.00;;;;;;5035346;28;21002;-88
2022/03/08 06:58:44;;;;;;;1.50;1.40;;;25.60;40.10;;;;;;5035869;28;20442;-84
2022/03/08 07:01:11;;;;;;;2.23;1.30;;;25.50;40.00;;;;;;5035637;28;20445;-89
2022/03/08 07:03:37;;;;;;;1.50;1.40;;;25.50;40.20;;;;;;5035724;28;20443;-85
2022/03/08 07:06:05;;;;;;;1.47;1.37;;;25.60;40.10;;;;;;5035593;28;20937;-90
2022/03/08 07:08:32;;;;;;;2.23;1.67;;;25.60;40.10;;;;;;5035628;28;20856;-90
2022/03/08 07:10:58;;;;;;;1.47;1.37;;;25.70;39.90;;;;;;5035519;28;20438;-89
2022/03/08 07:13:26;;;;;;;1.90;1.40;;;25.90;39.80;;;;;;5035423;28;20485;-89
2022/03/08 07:15:54;;;;;;;1.83;1.10;;;26.10;39.60;;;;;;5035299;28;20930;-85
2022/03/08 07:18:21;;;;;;;1.60;1.50;;;26.60;39.40;;;;;;5035627;28;20457;-85
2022/03/08 07:20:47;;;;;;;1.77;1.67;;;27.00;38.90;;;;;;5035422;28;20438;-85
2022/03/08 07:23:14;;;;;;;1.73;1.30;;;27.50;38.30;;;;;;5035500;28;20470;-85
2022/03/08 07:25:41;;;;;;;1.40;1.30;;;28.00;37.90;;;;;;5035401;28;20439;-85
2022/03/08 07:28:08;;;;;;;3.20;1.40;;;28.10;37.70;;;;;;5054378;28;20984;-85
2022/03/08 07:30:35;;;;;;;1.93;1.53;;;28.10;37.70;;;;;;5055253;28;20441;-85
2022/03/08 07:33:03;;;;;;;1.47;1.37;;;28.00;37.70;;;;;;5054807;28;20458;-89
2022/03/08 07:35:29;;;;;;;1.50;1.40;;;27.80;37.90;;;;;;5054864;28;20449;-88
2022/03/08 07:37:56;;;;;;;1.70;1.60;;;27.60;38.00;;;;;;5054930;28;20442;-86
2022/03/08 07:40:23;;;;;;;1.50;1.30;;;27.40;38.10;;;;;;5054795;28;20481;-85
2022/03/08 07:42:50;;;;;;;1.87;1.33;;;27.20;38.30;;;;;;5055464;28;20444;-87
2022/03/08 07:45:17;;;;;;;1.40;1.30;;;27.00;38.40;;;;;;5054947;28;20446;-87
2022/03/08 07:47:43;;;;;;;1.43;1.33;;;26.90;38.50;;;;;;5054688;28;20437;-84
2022/03/08 07:50:12;;;;;;;1.47;1.37;;;26.70;38.60;;;;;;5054632;28;20442;-89
2022/03/08 07:52:39;;;;;;;1.60;1.50;;;26.70;38.70;;;;;;5054924;28;20438;-85
2022/03/08 07:55:07;;;;;;;1.60;1.30;;;26.60;38.70;;;;;;5054185;28;20485;-87
2022/03/08 07:57:34;;;;;;;1.90;1.50;;;26.50;38.70;;;;;;5054215;28;20484;-87
2022/03/08 08:00:01;;;;;;;2.23;1.60;;;26.50;38.70;;;;;;5054100;28;20448;-87
2022/03/08 08:02:28;;;;;;;3.00;1.93;;;26.60;38.70;;;;;;5053931;28;20461;-86
2022/03/08 08:04:56;;;;;;;1.83;1.40;;;26.50;38.70;;;;;;5053299;28;20475;-86
2022/03/08 08:07:24;;;;;;;2.00;1.53;;;26.60;39.00;;;;;;5052251;28;20453;-86
2022/03/08 08:09:51;;;;;;;1.57;1.47;;;26.60;39.60;;;;;;5051883;28;20465;-86
2022/03/08 08:12:18;;;;;;;2.37;1.50;;;26.60;39.10;;;;;;5052426;28;20461;-89
2022/03/08 08:14:45;;;;;;;1.93;1.83;;;26.60;39.10;;;;;;5054518;28;20531;-92
2022/03/08 08:17:11;;;;;;;1.70;1.60;;;26.60;39.10;;;;;;5054498;28;20960;-92
2022/03/08 08:19:38;;;;;;;1.33;1.23;;;26.60;39.10;;;;;;5052566;28;20448;-92
2022/03/08 08:22:05;;;;;;;1.30;1.20;;;26.60;39.20;;;;;;5052917;28;20441;-83
2022/03/08 08:24:33;;;;;;;1.73;1.60;;;26.60;39.30;;;;;;5052923;28;20449;-85
2022/03/08 08:27:00;;;;;;;1.30;1.10;;;26.60;39.30;;;;;;5053573;28;20568;-89
2022/03/08 08:29:27;;;;;;;1.90;1.30;;;26.70;39.90;;;;;;5053424;28;20825;-86
2022/03/08 08:31:54;;;;;;;1.80;1.50;;;26.70;39.20;;;;;;5053688;28;20497;-85
2022/03/08 08:34:21;;;;;;;1.53;1.43;;;26.80;39.20;;;;;;5053848;28;20481;-85
2022/03/08 08:36:47;;;;;;;1.30;1.20;;;26.80;39.30;;;;;;5053559;28;21096;-85
2022/03/08 08:39:15;;;;;;;1.20;1.07;;;26.90;39.30;;;;;;5053165;28;20429;-86
2022/03/08 08:41:43;;;;;;;1.40;1.30;;;27.00;39.30;;;;;;5053143;28;20460;-86
2022/03/08 08:44:10;;;;;;;1.40;1.17;;;27.10;39.20;;;;;;5053451;28;20446;-86
2022/03/08 08:46:37;;;;;;;1.50;1.20;;;27.50;39.00;;;;;;5053026;28;20438;-86
2022/03/08 08:49:04;;;;;;;1.87;1.47;;;28.20;38.50;;;;;;5053325;28;20445;-88
2022/03/08 08:51:31;;;;;;;1.30;1.17;;;29.10;37.90;;;;;;5053111;28;20452;-86
2022/03/08 08:54:00;;;;;;;1.20;1.10;;;29.80;37.20;;;;;;5052779;28;20984;-86
2022/03/08 08:56:27;;;;;;;1.73;1.13;;;30.50;36.60;;;;;;5053067;28;20434;-86
2022/03/08 08:58:55;;;;;;;1.40;1.30;;;31.10;36.20;;;;;;5053162;28;20549;-86
2022/03/08 09:01:22;;;;;;;1.47;1.30;;;31.50;35.90;;;;;;5053142;28;20472;-86
2022/03/08 09:03:49;;;;;;;1.60;1.40;;;31.60;35.70;;;;;;5053505;28;20441;-86
2022/03/08 09:06:15;;;;;;;2.57;1.50;;;31.70;35.60;;;;;;5053610;28;20442;-87
2022/03/08 09:08:42;;;;;;;1.47;1.33;;;32.00;35.40;;;;;;5053569;28;20445;-86
2022/03/08 09:11:10;;;;;;;2.03;1.13;;;32.40;35.20;;;;;;5052780;28;20482;-86
2022/03/08 09:13:37;;;;;;;1.30;1.20;;;32.60;35.00;;;;;;5053410;28;20477;-88
2022/03/08 09:16:05;;;;;;;1.20;1.10;;;32.80;34.90;;;;;;5053138;28;20444;-88
2022/03/08 09:18:32;;;;;;;1.20;1.10;;;32.70;34.90;;;;;;5053213;28;20446;-87
2022/03/08 09:20:59;;;;;;;1.40;1.30;;;32.40;35.60;;;;;;5053291;28;20447;-86
2022/03/08 09:23:26;;;;;;;2.10;1.37;;;32.20;35.10;;;;;;5053579;28;20438;-86
2022/03/08 09:25:53;;;;;;;1.50;1.33;;;31.80;35.40;;;;;;5053289;28;20449;-86
2022/03/08 09:28:20;;;;;;;1.40;1.30;;;31.30;35.70;;;;;;5053321;28;21311;-86
2022/03/08 09:30:48;;;;;;;1.70;1.60;;;31.00;36.20;;;;;;5052982;28;20496;-86
2022/03/08 09:33:16;;;;;;;1.30;1.20;;;30.60;36.40;;;;;;5053220;28;20835;-86
2022/03/08 09:35:43;;;;;;;1.60;1.00;;;30.20;36.70;;;;;;5052945;28;20483;-88
2022/03/08 09:38:11;;;;;;;1.40;1.30;;;29.90;37.00;;;;;;5052972;28;20919;-86
2022/03/08 09:40:38;;;;;;;1.30;1.17;;;29.70;37.30;;;;;;5053111;28;20446;-86
2022/03/08 09:43:06;;;;;;;1.20;1.10;;;29.50;37.60;;;;;;5053264;28;20917;-86
2022/03/08 09:45:33;;;;;;;1.30;1.20;;;29.30;37.80;;;;;;5053106;28;20445;-87
2022/03/08 09:48:01;;;;;;;1.40;1.30;;;29.10;38.00;;;;;;5052997;28;20467;-85
2022/03/08 09:50:29;;;;;;;1.10;1.00;;;28.90;38.10;;;;;;5053024;28;20445;-86
2022/03/08 09:52:57;;;;;;;1.50;1.20;;;28.80;38.30;;;;;;5052982;28;20971;-86
2022/03/08 09:55:26;;;;;;;1.30;1.20;;;28.70;38.50;;;;;;5052751;28;20488;-86
2022/03/08 09:57:54;;;;;;;2.17;1.50;;;28.60;38.60;;;;;;5052995;28;20445;-85
2022/03/08 10:00:23;;;;;;;1.30;1.10;;;28.50;38.70;;;;;;5053030;28;20448;-86
2022/03/08 10:02:51;;;;;;;2.17;1.20;;;28.40;38.80;;;;;;5052980;28;20572;-86
2022/03/08 10:05:22;;;;;;;1.80;1.20;;;28.40;38.90;;;;;;5052727;28;20445;-85
2022/03/08 10:08:11;;;;;;;1.63;1.43;;;28.40;39.00;;;;;;5052852;28;20507;-85
2022/03/08 10:10:46;;;;;;;1.20;1.10;;;28.30;39.00;;;;;;5052854;28;20812;-86
2022/03/08 10:13:14;;;;;;;1.30;1.20;;;28.30;39.10;;;;;;5052882;28;20440;-88
2022/03/08 10:15:41;;;;;;;1.20;1.10;;;28.40;39.30;;;;;;5052337;28;20489;-87
2022/03/08 10:18:08;;;;;;;1.67;1.57;;;28.20;39.30;;;;;;5052805;28;20437;-88
2022/03/08 10:20:35;;;;;;;1.40;1.30;;;28.20;39.30;;;;;;5052969;28;20532;-88
2022/03/08 10:23:09;;;;;;;1.47;1.20;;;28.20;39.30;;;;;;5055168;28;20500;-88
2022/03/08 10:25:37;;;;;;;1.30;1.10;;;28.20;39.40;;;;;;5056543;28;20467;-87
2022/03/08 10:28:06;;;;;;;1.20;1.10;;;28.20;39.40;;;;;;5056235;28;20465;-87
2022/03/08 10:30:51;;;;;;;1.10;1.00;;;28.20;39.40;;;;;;5056176;28;20465;-88
2022/03/08 10:33:20;;;;;;;1.40;1.30;;;28.20;39.40;;;;;;5056133;28;20495;-87
2022/03/08 10:35:48;;;;;;;1.63;1.53;;;28.20;39.40;;;;;;5056029;28;20493;-86
2022/03/08 10:38:15;;;;;;;2.80;1.33;;;28.20;39.50;;;;;;5056238;28;20442;-87
2022/03/08 10:40:44;;;;;;;1.20;1.00;;;28.30;39.50;;;;;;5055963;28;20464;-86
2022/03/08 10:43:13;;;;;;;1.20;1.10;;;28.30;39.50;;;;;;5056076;28;20442;-86
2022/03/08 10:45:43;;;;;;;1.13;1.03;;;28.30;39.50;;;;;;5055895;28;20933;-86
2022/03/08 10:48:13;;;;;;;1.30;1.20;;;28.30;39.50;;;;;;5056060;28;20434;-87
2022/03/08 10:50:41;;;;;;;1.10;0.90;;;28.30;39.50;;;;;;5055757;28;20446;-86
2022/03/08 10:53:09;;;;;;;1.20;1.00;;;28.40;39.60;;;;;;5055834;28;20441;-89
2022/03/08 10:55:37;;;;;;;1.20;1.10;;;28.40;39.60;;;;;;5055460;28;20501;-86
2022/03/08 10:58:07;;;;;;;1.10;1.00;;;28.40;39.60;;;;;;5055579;28;20441;-89
2022/03/08 11:00:38;;;;;;;1.20;1.07;;;28.40;39.60;;;;;;5055499;28;20434;-88
2022/03/08 11:03:07;;;;;;;1.13;1.00;;;28.40;39.70;;;;;;5055710;28;20466;-88
2022/03/08 11:05:35;;;;;;;1.10;1.00;;;28.50;39.70;;;;;;5055769;28;20441;-87
2022/03/08 11:08:03;;;;;;;1.37;1.27;;;28.50;39.70;;;;;;5055516;28;20446;-86
2022/03/08 11:10:30;;;;;;;1.20;1.10;;;28.50;39.70;;;;;;5055528;28;20817;-86
2022/03/08 11:12:58;;;;;;;1.40;1.10;;;28.50;39.70;;;;;;5055376;28;20465;-87
2022/03/08 11:15:28;;;;;;;1.53;1.30;;;28.50;39.70;;;;;;5055353;28;20488;-88
2022/03/08 11:17:57;;;;;;;1.40;1.17;;;28.60;38.40;;;;;;5055619;28;20511;-85
2022/03/08 11:20:26;;;;;;;1.40;1.30;;;28.60;38.40;;;;;;5055132;28;20442;-85
2022/03/08 11:22:55;;;;;;;1.10;0.90;;;28.60;39.20;;;;;;5055261;28;20440;-85
2022/03/08 11:25:24;;;;;;;1.60;1.00;;;28.60;39.40;;;;;;5055261;28;20466;-84
2022/03/08 11:27:51;;;;;;;1.50;1.10;;;28.60;39.50;;;;;;5054839;28;20998;-84
2022/03/08 11:30:21;;;;;;;3.00;1.10;;;28.60;39.50;;;;;;5054904;28;20442;-84
2022/03/08 11:32:59;;;;;;;1.10;1.00;;;28.50;39.50;;;;;;5054430;28;20520;-85
2022/03/08 11:35:30;;;;;;;1.20;1.10;;;28.60;39.60;;;;;;5054409;28;21122;-85
2022/03/08 11:37:59;;;;;;;1.30;1.20;;;28.60;39.60;;;;;;5055147;28;20444;-85
2022/03/08 11:40:26;;;;;;;1.40;1.10;;;28.60;39.70;;;;;;5054908;28;20438;-85
2022/03/08 11:42:55;;;;;;;1.30;1.20;;;28.60;39.70;;;;;;5055048;28;20442;-85
2022/03/08 11:45:25;;;;;;;1.50;1.37;;;28.60;39.80;;;;;;5054846;28;20449;-85
2022/03/08 11:47:58;;;;;;;1.20;1.10;;;28.60;39.80;;;;;;5054835;28;20779;-85
2022/03/08 11:50:28;;;;;;;1.47;1.37;;;28.60;39.80;;;;;;5054779;28;20437;-85
2022/03/08 11:53:14;;;;;;;1.20;1.00;;;28.60;39.90;;;;;;5054735;28;20434;-85
2022/03/08 11:55:47;;;;;;;2.00;0.93;;;28.70;40.00;;;;;;5054565;28;20488;-85
2022/03/08 11:58:16;;;;;;;1.10;1.00;;;28.60;40.00;;;;;;5054393;28;20804;-85
2022/03/08 12:00:44;;;;;;;1.20;1.10;;;28.60;40.00;;;;;;5054305;28;20442;-86
2022/03/08 12:03:15;;;;;;;1.30;1.20;;;28.60;40.00;;;;;;5054457;28;20449;-86
2022/03/08 12:05:44;;;;;;;1.07;0.97;;;28.60;40.10;;;;;;5054540;28;20434;-85
2022/03/08 12:08:41;;;;;;;1.40;1.20;;;28.60;40.10;;;;;;5054351;28;20445;-86
2022/03/08 12:11:32;;;;;;;2.67;1.37;;;28.70;40.20;;;;;;5048289;28;20437;-86
2022/03/08 12:14:02;;;;;;;1.50;1.40;;;28.60;40.20;;;;;;5053414;28;20943;-85
2022/03/08 12:16:29;;;;;;;1.17;0.97;;;28.70;40.20;;;;;;5053890;28;20482;-85
2022/03/08 12:18:59;;;;;;;1.10;1.00;;;28.70;40.20;;;;;;5053977;28;20449;-85
2022/03/08 12:21:34;;;;;;;1.20;1.10;;;28.80;40.30;;;;;;5054256;28;20433;-85
2022/03/08 12:24:04;;;;;;;1.80;1.70;;;28.70;40.30;;;;;;5054463;28;20457;-85
2022/03/08 12:26:33;;;;;;;1.30;1.20;;;28.70;39.30;;;;;;5053887;28;20470;-85
2022/03/08 12:29:12;;;;;;;1.00;0.90;;;28.70;39.10;;;;;;5054213;28;20516;-85
2022/03/08 12:32:17;;;;;;;1.10;1.00;;;28.70;39.80;;;;;;5054139;28;20859;-86
2022/03/08 12:34:49;;;;;;;1.20;1.07;;;28.70;39.90;;;;;;5053867;28;20504;-85
2022/03/08 12:37:18;;;;;;;1.30;1.20;;;28.70;40.00;;;;;;5053714;28;20442;-86
2022/03/08 12:39:46;;;;;;;1.10;1.00;;;28.70;40.00;;;;;;5053650;28;20446;-85
2022/03/08 12:42:19;;;;;;;3.30;1.47;;;28.70;40.00;;;;;;5053666;28;20460;-85
2022/03/08 12:44:58;;;;;;;2.20;1.10;;;28.70;40.00;;;;;;5053677;28;20474;-85
2022/03/08 12:47:26;;;;;;;1.97;1.00;;;28.70;40.10;;;;;;5054316;28;20444;-85
2022/03/08 12:49:56;;;;;;;2.10;1.10;;;28.70;40.10;;;;;;5053671;28;20449;-86
2022/03/08 12:52:23;;;;;;;1.30;1.10;;;28.70;40.10;;;;;;5053671;28;20440;-87